createdAt,value
2019-01-25T00:02:00.793Z,-2.03
2019-01-25T00:04:31.535Z,-2.10
2019-01-25T00:07:01.762Z,-2.12
2019-01-25T00:09:32.286Z,-2.05
2019-01-25T00:12:02.609Z,-2.11
2019-01-25T00:14:32.824Z,-2.13
2019-01-25T00:17:03.550Z,-2.15
2019-01-25T00:19:33.614Z,-2.14
2019-01-25T00:22:03.874Z,-2.13
2019-01-25T00:24:34.452Z,-2.14
2019-01-25T00:27:04.711Z,-2.14
2019-01-25T00:29:35.362Z,-2.15
2019-01-25T00:32:05.714Z,-2.13
2019-01-25T00:34:36.234Z,-2.13
2019-01-25T00:37:06.727Z,-2.12
2019-01-25T00:39:36.898Z,-2.09
2019-01-25T00:42:10.311Z,-2.11
2019-01-25T00:44:40.455Z,-2.10
2019-01-25T00:47:10.481Z,-2.11
2019-01-25T00:49:41.094Z,-2.10
2019-01-25T00:52:11.443Z,-2.09
2019-01-25T00:54:41.693Z,-2.09
2019-01-25T00:57:12.272Z,-2.08
2019-01-25T00:59:42.575Z,-2.08
2019-01-25T01:02:12.874Z,-2.09
2019-01-25T01:04:43.429Z,-2.08
2019-01-25T01:07:13.791Z,-2.08
2019-01-25T01:09:44.265Z,-2.10
2019-01-25T01:12:14.701Z,-2.10
2019-01-25T01:14:45.353Z,-2.12
2019-01-25T01:17:15.598Z,-2.09
2019-01-25T01:19:45.711Z,-2.10
2019-01-25T01:22:16.069Z,-2.12
2019-01-25T01:24:46.237Z,-2.12
2019-01-25T01:27:16.541Z,-2.11
2019-01-25T01:29:46.745Z,-2.09
2019-01-25T01:32:17.226Z,-2.14
2019-01-25T01:34:47.335Z,-2.16
2019-01-25T01:37:17.651Z,-2.18
2019-01-25T01:39:48.229Z,-2.18
2019-01-25T01:42:18.376Z,-2.19
2019-01-25T01:44:51.393Z,-2.25
2019-01-25T01:47:21.701Z,-2.23
2019-01-25T01:49:52.231Z,-2.21
2019-01-25T01:52:22.657Z,-2.21
2019-01-25T01:54:52.941Z,-2.22
2019-01-25T01:57:23.275Z,-2.25
2019-01-25T01:59:53.418Z,-2.22
2019-01-25T02:02:23.652Z,-2.23
2019-01-25T02:04:54.135Z,-2.23
2019-01-25T02:07:24.644Z,-2.22
2019-01-25T02:09:55.228Z,-2.22
2019-01-25T02:12:25.576Z,-2.21
2019-01-25T02:14:56.092Z,-2.21
2019-01-25T02:17:26.443Z,-2.20
2019-01-25T02:19:56.512Z,-2.25
2019-01-25T02:22:26.826Z,-2.24
2019-01-25T02:24:57.344Z,-2.24
2019-01-25T02:27:27.847Z,-2.25
2019-01-25T02:29:58.339Z,-2.27
2019-01-25T02:32:28.406Z,-2.33
2019-01-25T02:34:58.647Z,-2.34
2019-01-25T02:37:29.165Z,-2.33
2019-01-25T02:39:59.510Z,-2.31
2019-01-25T02:42:29.575Z,-2.36
2019-01-25T02:44:59.633Z,-2.49
2019-01-25T02:47:29.853Z,-2.49
2019-01-25T02:50:00.319Z,-2.51
2019-01-25T02:52:30.641Z,-2.55
2019-01-25T02:55:00.713Z,-2.54
2019-01-25T02:57:31.168Z,-2.52
2019-01-25T03:00:01.607Z,-2.51
2019-01-25T03:02:31.866Z,-2.48
2019-01-25T03:05:02.365Z,-2.48
2019-01-25T03:07:32.749Z,-2.46
2019-01-25T03:10:03.353Z,-2.45
2019-01-25T03:12:33.760Z,-2.42
2019-01-25T03:15:04.696Z,-2.41
2019-01-25T03:17:35.357Z,-2.42
2019-01-25T03:20:06.554Z,-2.43
2019-01-25T03:22:37.748Z,-2.42
2019-01-25T03:25:09.823Z,-2.42
2019-01-25T03:27:40.384Z,-2.45
2019-01-25T03:30:12.423Z,-2.44
2019-01-25T03:32:42.618Z,-2.58
2019-01-25T03:35:13.621Z,-2.63
2019-01-25T03:37:44.224Z,-2.69
2019-01-25T03:40:17.766Z,-2.67
2019-01-25T03:42:48.306Z,-2.61
2019-01-25T03:45:18.957Z,-2.58
2019-01-25T03:47:49.601Z,-2.54
2019-01-25T03:50:22.275Z,-2.54
2019-01-25T03:52:52.486Z,-2.53
2019-01-25T03:55:23.039Z,-2.58
2019-01-25T03:57:53.510Z,-2.65
2019-01-25T04:00:25.667Z,-2.60
2019-01-25T04:02:56.083Z,-2.58
2019-01-25T04:05:26.878Z,-2.62
2019-01-25T04:07:57.294Z,-2.63
2019-01-25T04:10:28.796Z,-2.66
2019-01-25T04:12:59.420Z,-2.60
2019-01-25T04:15:32.529Z,-2.60
2019-01-25T04:18:02.800Z,-2.69
2019-01-25T04:20:33.367Z,-2.68
2019-01-25T04:23:03.654Z,-2.65
2019-01-25T04:25:34.703Z,-2.69
2019-01-25T04:28:05.232Z,-2.66
2019-01-25T04:30:35.533Z,-2.70
2019-01-25T04:33:06.293Z,-2.69
2019-01-25T04:35:36.544Z,-2.70
2019-01-25T04:38:06.856Z,-2.69
2019-01-25T04:40:37.351Z,-2.68
2019-01-25T04:43:08.951Z,-2.72
2019-01-25T04:45:39.261Z,-2.71
2019-01-25T04:48:15.201Z,-2.66
2019-01-25T04:50:45.448Z,-2.83
2019-01-25T04:53:15.601Z,-2.86
2019-01-25T04:55:45.913Z,-2.92
2019-01-25T04:58:18.142Z,-2.96
2019-01-25T05:00:48.417Z,-2.91
2019-01-25T05:03:18.958Z,-2.83
2019-01-25T05:05:49.519Z,-2.77
2019-01-25T05:08:21.466Z,-2.75
2019-01-25T05:10:51.702Z,-2.73
2019-01-25T05:13:22.258Z,-2.70
2019-01-25T05:15:52.599Z,-2.68
2019-01-25T05:18:23.008Z,-2.70
2019-01-25T05:20:53.604Z,-2.70
2019-01-25T05:23:23.743Z,-2.71
2019-01-25T05:25:54.274Z,-2.73
2019-01-25T05:28:24.458Z,-2.74
2019-01-25T05:31:02.805Z,-2.89
2019-01-25T05:33:33.278Z,-2.79
2019-01-25T05:36:03.678Z,-2.79
2019-01-25T05:38:34.128Z,-2.95
2019-01-25T05:41:05.178Z,-2.94
2019-01-25T05:43:43.782Z,-2.90
2019-01-25T05:46:14.389Z,-2.84
2019-01-25T05:48:44.664Z,-2.84
2019-01-25T05:51:14.962Z,-2.78
2019-01-25T05:53:55.136Z,-2.78
2019-01-25T05:56:26.767Z,-2.81
2019-01-25T05:58:57.094Z,-2.88
2019-01-25T06:01:27.373Z,-2.93
2019-01-25T06:03:57.612Z,-3.03
2019-01-25T06:06:28.146Z,-3.04
2019-01-25T06:08:58.305Z,-3.12
2019-01-25T06:11:35.249Z,-3.17
2019-01-25T06:14:00.399Z,-3.17
2019-01-25T06:16:30.584Z,-3.12
2019-01-25T06:19:00.730Z,-3.21
2019-01-25T06:21:31.091Z,-3.12
2019-01-25T06:24:01.360Z,-3.04
2019-01-25T06:26:31.608Z,-3.01
2019-01-25T06:29:01.739Z,-2.96
2019-01-25T06:31:32.938Z,-2.91
2019-01-25T06:34:03.393Z,-2.88
2019-01-25T06:36:33.807Z,-2.87
2019-01-25T06:39:05.993Z,-2.89
2019-01-25T06:41:43.772Z,-2.89
2019-01-25T06:44:08.714Z,-2.89
2019-01-25T06:46:39.180Z,-2.89
2019-01-25T06:49:09.650Z,-2.91
2019-01-25T06:51:39.977Z,-2.91
2019-01-25T06:54:10.463Z,-2.88
2019-01-25T06:56:40.646Z,-2.94
2019-01-25T06:59:14.748Z,-2.91
2019-01-25T07:02:03.097Z,-2.87
2019-01-25T07:04:33.555Z,-2.85
2019-01-25T07:07:05.514Z,-2.86
2019-01-25T07:09:36.169Z,-2.92
2019-01-25T07:12:06.685Z,-2.95
2019-01-25T07:14:37.056Z,-2.97
2019-01-25T07:17:07.471Z,-2.95
2019-01-25T07:19:37.918Z,-2.93
2019-01-25T07:22:08.560Z,-2.91
2019-01-25T07:24:39.060Z,-2.97
2019-01-25T07:27:15.166Z,-2.94
2019-01-25T07:29:45.466Z,-2.91
2019-01-25T07:32:15.670Z,-2.94
2019-01-25T07:34:45.921Z,-2.99
2019-01-25T07:37:16.389Z,-2.87
2019-01-25T07:39:47.251Z,-2.96
2019-01-25T07:42:17.497Z,-3.03
2019-01-25T07:44:47.767Z,-3.08
2019-01-25T07:47:18.417Z,-3.12
2019-01-25T07:49:48.693Z,-3.22
2019-01-25T07:52:19.004Z,-3.27
2019-01-25T07:54:49.246Z,-3.17
2019-01-25T07:57:19.468Z,-3.11
2019-01-25T07:59:49.947Z,-3.06
2019-01-25T08:02:20.479Z,-3.24
2019-01-25T08:04:50.746Z,-3.36
2019-01-25T08:07:21.370Z,-3.37
2019-01-25T08:09:51.709Z,-3.37
2019-01-25T08:12:22.405Z,-3.40
2019-01-25T08:14:52.745Z,-3.42
2019-01-25T08:17:23.237Z,-3.40
2019-01-25T08:19:53.644Z,-3.37
2019-01-25T08:22:23.732Z,-3.44
2019-01-25T08:24:54.269Z,-3.29
2019-01-25T08:27:24.513Z,-3.15
2019-01-25T08:29:54.744Z,-3.22
2019-01-25T08:32:25.194Z,-3.28
2019-01-25T08:34:55.755Z,-3.31
2019-01-25T08:37:28.753Z,-3.21
2019-01-25T08:39:59.191Z,-3.11
2019-01-25T08:42:29.446Z,-3.06
2019-01-25T08:44:59.864Z,-3.08
2019-01-25T08:47:30.524Z,-3.12
2019-01-25T08:50:01.043Z,-3.09
2019-01-25T08:52:31.526Z,-3.09
2019-01-25T08:55:02.656Z,-3.03
2019-01-25T08:57:32.808Z,-3.04
2019-01-25T09:00:03.502Z,-3.03
2019-01-25T09:02:33.593Z,-3.03
2019-01-25T09:05:03.862Z,-3.03
2019-01-25T09:07:34.399Z,-2.96
2019-01-25T09:10:05.252Z,-2.93
2019-01-25T09:12:35.639Z,-2.98
2019-01-25T09:15:07.775Z,-2.92
2019-01-25T09:17:38.386Z,-2.95
2019-01-25T09:20:14.533Z,-3.04
2019-01-25T09:22:43.245Z,-2.97
2019-01-25T09:25:13.545Z,-3.10
2019-01-25T09:27:43.751Z,-3.05
2019-01-25T09:30:16.963Z,-2.99
2019-01-25T09:32:47.480Z,-3.12
2019-01-25T09:35:17.959Z,-3.12
2019-01-25T09:37:50.127Z,-3.13
2019-01-25T09:40:23.349Z,-3.13
2019-01-25T09:42:53.865Z,-3.06
2019-01-25T09:45:24.447Z,-3.08
2019-01-25T09:47:54.665Z,-3.14
2019-01-25T09:50:25.276Z,-3.25
2019-01-25T09:52:55.741Z,-3.20
2019-01-25T09:55:26.272Z,-3.33
2019-01-25T09:57:57.370Z,-3.34
2019-01-25T10:00:36.747Z,-3.29
2019-01-25T10:03:07.087Z,-3.25
2019-01-25T10:05:37.413Z,-3.25
2019-01-25T10:08:07.687Z,-3.26
2019-01-25T10:10:38.203Z,-3.36
2019-01-25T10:13:08.598Z,-3.46
2019-01-25T10:15:38.855Z,-3.43
2019-01-25T10:18:09.718Z,-3.32
2019-01-25T10:20:40.607Z,-3.37
2019-01-25T10:23:11.173Z,-3.28
2019-01-25T10:25:41.443Z,-3.21
2019-01-25T10:28:11.851Z,-3.26
2019-01-25T10:30:42.406Z,-3.12
2019-01-25T10:33:15.736Z,-3.10
2019-01-25T10:35:46.368Z,-3.19
2019-01-25T10:38:16.718Z,-3.10
2019-01-25T10:40:47.164Z,-3.11
2019-01-25T10:43:17.362Z,-3.18
2019-01-25T10:45:47.692Z,-3.13
2019-01-25T10:48:18.069Z,-3.21
2019-01-25T10:50:48.439Z,-3.17
2019-01-25T10:53:18.744Z,-3.08
2019-01-25T10:55:49.353Z,-3.10
2019-01-25T10:58:19.996Z,-3.03
2019-01-25T11:00:51.314Z,-3.00
2019-01-25T11:03:21.898Z,-2.90
2019-01-25T11:06:03.060Z,-2.81
2019-01-25T11:08:33.444Z,-2.82
2019-01-25T11:11:03.634Z,-2.87
2019-01-25T11:13:33.901Z,-2.89
2019-01-25T11:16:04.829Z,-2.81
2019-01-25T11:18:35.383Z,-2.90
2019-01-25T11:21:05.680Z,-2.84
2019-01-25T11:23:36.385Z,-2.84
2019-01-25T11:26:06.682Z,-2.82
2019-01-25T11:28:37.203Z,-2.81
2019-01-25T11:31:07.580Z,-3.06
2019-01-25T11:33:43.259Z,-3.06
2019-01-25T11:36:13.778Z,-3.13
2019-01-25T11:38:44.381Z,-3.13
2019-01-25T11:41:14.736Z,-3.02
2019-01-25T11:43:45.209Z,-2.94
2019-01-25T11:46:15.390Z,-3.01
2019-01-25T11:48:45.531Z,-2.89
2019-01-25T11:51:15.657Z,-2.85
2019-01-25T11:53:46.225Z,-2.81
2019-01-25T11:56:16.577Z,-2.88
2019-01-25T11:58:46.866Z,-2.85
2019-01-25T12:01:19.020Z,-2.94
2019-01-25T12:03:49.315Z,-2.87
2019-01-25T12:06:19.616Z,-2.87
2019-01-25T12:08:49.847Z,-2.78
2019-01-25T12:11:20.212Z,-2.73
2019-01-25T12:13:50.773Z,-2.72
2019-01-25T12:16:21.345Z,-2.70
2019-01-25T12:18:51.379Z,-2.88
2019-01-25T12:21:21.712Z,-2.73
2019-01-25T12:23:52.269Z,-2.74
2019-01-25T12:26:22.384Z,-2.66
2019-01-25T12:28:52.778Z,-2.72
2019-01-25T12:31:23.317Z,-2.76
2019-01-25T12:33:53.589Z,-2.75
2019-01-25T12:36:23.841Z,-2.82
2019-01-25T12:38:54.683Z,-2.85
2019-01-25T12:41:25.366Z,-2.75
2019-01-25T12:43:55.636Z,-2.74
2019-01-25T12:46:26.009Z,-2.66
2019-01-25T12:48:56.512Z,-2.70
2019-01-25T12:51:40.442Z,-2.63
2019-01-25T12:54:10.664Z,-2.58
2019-01-25T12:56:41.138Z,-2.64
2019-01-25T12:59:11.483Z,-2.83
2019-01-25T13:01:42.050Z,-2.82
2019-01-25T13:04:15.247Z,-2.75
2019-01-25T13:06:45.624Z,-2.78
2019-01-25T13:09:16.234Z,-2.77
2019-01-25T13:11:47.472Z,-2.83
2019-01-25T13:14:17.528Z,-2.83
2019-01-25T13:16:47.868Z,-2.76
2019-01-25T13:19:18.244Z,-2.69
2019-01-25T13:21:48.913Z,-2.58
2019-01-25T13:24:20.718Z,-2.61
2019-01-25T13:26:51.279Z,-2.63
2019-01-25T13:29:26.069Z,-2.57
2019-01-25T13:31:53.335Z,-2.47
2019-01-25T13:34:23.708Z,-2.34
2019-01-25T13:36:57.192Z,-2.32
2019-01-25T13:39:26.649Z,-2.30
2019-01-25T13:41:58.531Z,-2.23
2019-01-25T13:44:30.327Z,-2.27
2019-01-25T13:47:00.687Z,-2.30
2019-01-25T13:49:30.901Z,-2.27
2019-01-25T13:52:02.397Z,-2.32
2019-01-25T13:54:32.623Z,-2.28
2019-01-25T13:57:02.876Z,-2.28
2019-01-25T13:59:33.353Z,-2.27
2019-01-25T14:02:03.630Z,-2.34
2019-01-25T14:04:34.554Z,-2.38
2019-01-25T14:07:04.802Z,-2.32
2019-01-25T14:09:35.226Z,-2.26
2019-01-25T14:12:05.712Z,-2.21
2019-01-25T14:14:36.090Z,-2.18
2019-01-25T14:17:06.667Z,-2.16
2019-01-25T14:19:37.124Z,-2.21
2019-01-25T14:22:08.715Z,-2.23
2019-01-25T14:24:39.250Z,-2.23
2019-01-25T14:27:09.415Z,-2.20
2019-01-25T14:29:39.541Z,-2.31
2019-01-25T14:32:09.849Z,-2.30
2019-01-25T14:34:40.485Z,-2.31
2019-01-25T14:37:10.730Z,-2.31
2019-01-25T14:39:41.166Z,-2.29
2019-01-25T14:42:11.459Z,-2.23
2019-01-25T14:44:41.626Z,-2.22
2019-01-25T14:47:12.405Z,-2.29
2019-01-25T14:49:42.644Z,-2.35
2019-01-25T14:52:12.938Z,-2.38
2019-01-25T14:54:43.564Z,-2.36
2019-01-25T14:57:14.687Z,-2.30
2019-01-25T14:59:45.343Z,-2.40
2019-01-25T15:02:15.889Z,-2.34
2019-01-25T15:04:46.617Z,-2.58
2019-01-25T15:07:16.937Z,-2.58
2019-01-25T15:09:47.492Z,-2.54
2019-01-25T15:12:17.824Z,-2.51
2019-01-25T15:14:51.574Z,-2.54
2019-01-25T15:17:22.778Z,-2.54
2019-01-25T15:19:54.641Z,-2.49
2019-01-25T15:22:24.826Z,-2.46
2019-01-25T15:24:55.268Z,-2.39
2019-01-25T15:27:25.611Z,-2.35
2019-01-25T15:29:55.849Z,-2.34
2019-01-25T15:32:26.178Z,-2.33
2019-01-25T15:34:56.860Z,-2.32
2019-01-25T15:37:27.364Z,-2.30
2019-01-25T15:39:57.403Z,-2.33
2019-01-25T15:42:27.628Z,-2.28
2019-01-25T15:44:58.047Z,-2.38
2019-01-25T15:47:29.098Z,-2.37
2019-01-25T15:49:59.476Z,-2.40
2019-01-25T15:52:29.564Z,-2.38
2019-01-25T15:54:59.913Z,-2.41
2019-01-25T15:57:30.405Z,-2.38
2019-01-25T16:00:00.773Z,-2.38
2019-01-25T16:02:31.332Z,-2.39
2019-01-25T16:05:01.487Z,-2.38
2019-01-25T16:07:31.616Z,-2.35
2019-01-25T16:10:01.884Z,-2.34
2019-01-25T16:12:32.397Z,-2.34
2019-01-25T16:15:02.593Z,-2.36
2019-01-25T16:17:32.939Z,-2.34
2019-01-25T16:20:03.502Z,-2.44
2019-01-25T16:22:33.804Z,-2.43
2019-01-25T16:25:04.931Z,-2.42
2019-01-25T16:27:35.480Z,-2.42
2019-01-25T16:30:08.475Z,-2.38
2019-01-25T16:32:38.787Z,-2.41
2019-01-25T16:35:09.922Z,-2.38
2019-01-25T16:37:40.564Z,-2.42
2019-01-25T16:40:13.455Z,-2.41
2019-01-25T16:42:43.803Z,-2.43
2019-01-25T16:45:34.149Z,-2.45
2019-01-25T16:48:05.801Z,-2.42
2019-01-25T16:50:36.878Z,-2.38
2019-01-25T16:53:08.752Z,-2.36
2019-01-25T16:55:39.365Z,-2.35
2019-01-25T16:58:09.530Z,-2.34
2019-01-25T17:00:42.294Z,-2.33
2019-01-25T17:03:12.887Z,-2.33
2019-01-25T17:05:43.611Z,-2.38
2019-01-25T17:08:13.962Z,-2.44
2019-01-25T17:10:44.461Z,-2.43
2019-01-25T17:13:14.663Z,-2.39
2019-01-25T17:15:45.283Z,-2.41
2019-01-25T17:18:15.623Z,-2.43
2019-01-25T17:20:45.866Z,-2.45
2019-01-25T17:23:16.271Z,-2.45
2019-01-25T17:25:46.601Z,-2.42
2019-01-25T17:28:16.749Z,-2.42
2019-01-25T17:30:47.335Z,-2.42
2019-01-25T17:33:19.602Z,-2.44
2019-01-25T17:35:49.974Z,-2.42
2019-01-25T17:38:20.567Z,-2.40
2019-01-25T17:40:50.713Z,-2.36
2019-01-25T17:43:21.348Z,-2.40
2019-01-25T17:45:51.687Z,-2.40
2019-01-25T17:48:22.069Z,-2.37
2019-01-25T17:50:53.367Z,-2.35
2019-01-25T17:53:23.519Z,-2.38
2019-01-25T17:55:53.690Z,-2.37
2019-01-25T17:58:24.144Z,-2.44
2019-01-25T18:00:57.587Z,-2.41
2019-01-25T18:03:27.661Z,-2.41
2019-01-25T18:05:58.041Z,-2.39
2019-01-25T18:08:28.673Z,-2.38
2019-01-25T18:10:59.337Z,-2.36
2019-01-25T18:13:29.669Z,-2.38
2019-01-25T18:16:00.202Z,-2.41
2019-01-25T18:18:30.543Z,-2.41
2019-01-25T18:21:00.744Z,-2.42
2019-01-25T18:23:31.332Z,-2.39
2019-01-25T18:26:20.797Z,-2.40
2019-01-25T18:28:57.469Z,-2.38
2019-01-25T18:31:28.786Z,-2.47
2019-01-25T18:33:59.304Z,-2.41
2019-01-25T18:36:29.657Z,-2.36
2019-01-25T18:39:00.092Z,-2.34
2019-01-25T18:41:30.268Z,-2.32
2019-01-25T18:44:00.949Z,-2.33
2019-01-25T18:46:31.358Z,-2.34
2019-01-25T18:49:01.787Z,-2.36
2019-01-25T18:51:32.346Z,-2.34
2019-01-25T18:54:02.954Z,-2.35
2019-01-25T18:56:34.652Z,-2.33
2019-01-25T18:59:05.119Z,-2.33
2019-01-25T19:01:36.066Z,-2.30
2019-01-25T19:04:06.385Z,-2.28
2019-01-25T19:06:36.873Z,-2.29
2019-01-25T19:09:10.105Z,-2.29
2019-01-25T19:11:40.865Z,-2.27
2019-01-25T19:14:11.333Z,-2.26
2019-01-25T19:16:41.533Z,-2.25
2019-01-25T19:19:11.746Z,-2.12
2019-01-25T19:21:42.208Z,-2.17
2019-01-25T19:24:12.653Z,-2.20
2019-01-25T19:26:43.060Z,-2.23
2019-01-25T19:29:13.876Z,-2.24
2019-01-25T19:31:44.259Z,-2.27
2019-01-25T19:36:49.518Z,-2.30
2019-01-25T19:39:19.953Z,-2.35
2019-01-25T19:41:50.514Z,-2.32
2019-01-25T19:44:20.708Z,-2.17
2019-01-25T19:46:51.149Z,-2.22
2019-01-25T19:49:21.387Z,-2.22
2019-01-25T19:51:51.797Z,-2.26
2019-01-25T19:54:23.739Z,-2.29
2019-01-25T19:56:57.059Z,-2.29
2019-01-25T19:59:27.582Z,-2.31
2019-01-25T20:01:57.873Z,-2.32
2019-01-25T20:04:28.365Z,-2.32
2019-01-25T20:06:58.614Z,-2.35
2019-01-25T20:09:28.866Z,-2.37
2019-01-25T20:11:59.346Z,-2.38
2019-01-25T20:14:29.596Z,-2.39
2019-01-25T20:16:59.911Z,-2.45
2019-01-25T20:19:30.399Z,-2.47
2019-01-25T20:22:00.793Z,-2.46
2019-01-25T20:24:31.171Z,-2.46
2019-01-25T20:27:01.475Z,-2.47
2019-01-25T20:29:31.798Z,-2.47
2019-01-25T20:32:02.539Z,-2.47
2019-01-25T20:34:32.672Z,-2.50
2019-01-25T20:37:03.300Z,-2.48
2019-01-25T20:39:33.652Z,-2.47
2019-01-25T20:42:04.095Z,-2.47
2019-01-25T20:44:34.334Z,-2.47
2019-01-25T20:47:04.802Z,-2.46
2019-01-25T20:49:37.322Z,-2.46
2019-01-25T20:52:07.684Z,-2.46
2019-01-25T20:54:38.287Z,-2.46
2019-01-25T20:57:08.572Z,-2.46
2019-01-25T20:59:38.841Z,-2.46
2019-01-25T21:02:09.470Z,-2.48
2019-01-25T21:04:39.844Z,-2.49
2019-01-25T21:07:10.807Z,-2.42
2019-01-25T21:09:41.159Z,-2.34
2019-01-25T21:12:11.505Z,-2.33
2019-01-25T21:14:41.800Z,-2.39
2019-01-25T21:17:12.384Z,-2.42
2019-01-25T21:19:42.714Z,-2.42
2019-01-25T21:22:13.465Z,-2.41
2019-01-25T21:24:44.008Z,-2.38
2019-01-25T21:27:14.598Z,-2.35
2019-01-25T21:29:44.982Z,-2.36
2019-01-25T21:32:15.623Z,-2.38
2019-01-25T21:34:45.975Z,-2.38
2019-01-25T21:37:16.712Z,-2.39
2019-01-25T21:39:47.372Z,-2.37
2019-01-25T21:42:17.638Z,-2.38
2019-01-25T21:44:50.469Z,-2.37
2019-01-25T21:47:20.715Z,-2.35
2019-01-25T21:49:51.367Z,-2.35
2019-01-25T21:52:21.524Z,-2.30
2019-01-25T21:54:51.846Z,-2.32
2019-01-25T21:57:22.453Z,-2.28
2019-01-25T21:59:52.666Z,-2.28
2019-01-25T22:02:23.745Z,-2.37
2019-01-25T22:04:54.846Z,-2.36
2019-01-25T22:07:25.029Z,-2.30
2019-01-25T22:09:55.462Z,-2.37
2019-01-25T22:12:25.716Z,-2.34
2019-01-25T22:14:56.455Z,-2.36
2019-01-25T22:17:26.925Z,-2.37
2019-01-25T22:19:57.246Z,-2.44
2019-01-25T22:22:27.751Z,-2.42
2019-01-25T22:24:58.194Z,-2.36
2019-01-25T22:27:28.417Z,-2.42
2019-01-25T22:29:58.763Z,-2.47
2019-01-25T22:32:32.553Z,-2.43
2019-01-25T22:35:02.922Z,-2.48
2019-01-25T22:37:33.357Z,-2.49
2019-01-25T22:40:03.613Z,-2.49
2019-01-25T22:42:33.918Z,-2.48
2019-01-25T22:45:04.547Z,-2.50
2019-01-25T22:47:34.695Z,-2.48
2019-01-25T22:50:05.534Z,-2.46
2019-01-25T22:52:35.730Z,-2.41
2019-01-25T22:55:08.567Z,-2.42
2019-01-25T22:57:38.718Z,-2.45
2019-01-25T23:01:11.070Z,-2.42
2019-01-25T23:04:06.608Z,-2.39
2019-01-25T23:07:17.196Z,-2.41
2019-01-25T23:10:00.089Z,-2.48
2019-01-25T23:12:30.564Z,-2.52
2019-01-25T23:15:00.831Z,-2.43
2019-01-25T23:17:31.311Z,-2.43
2019-01-25T23:20:01.574Z,-2.43
2019-01-25T23:22:31.823Z,-2.40
2019-01-25T23:25:02.319Z,-2.41
2019-01-25T23:27:32.632Z,-2.37
2019-01-25T23:30:02.936Z,-2.36
2019-01-25T23:32:33.557Z,-2.34
2019-01-25T23:35:03.734Z,-2.32
2019-01-25T23:37:35.621Z,-2.36
2019-01-25T23:40:08.986Z,-2.33
2019-01-25T23:42:39.298Z,-2.33
2019-01-25T23:45:11.528Z,-2.39
2019-01-25T23:47:41.705Z,-2.47
2019-01-25T23:50:13.437Z,-2.42
2019-01-25T23:52:43.755Z,-2.51
2019-01-25T23:55:14.363Z,-2.50
2019-01-25T23:57:44.667Z,-2.48
